createdAt,value
2022-08-30T00:03:57.908Z,99803.13
2022-08-30T00:09:59.921Z,99792.00
2022-08-30T00:16:02.259Z,99806.41
2022-08-30T00:22:06.848Z,99801.28
2022-08-30T00:28:09.817Z,99801.47
2022-08-30T00:34:11.778Z,99795.00
2022-08-30T00:40:16.000Z,99788.03
2022-08-30T00:46:18.235Z,99789.91
2022-08-30T00:52:22.267Z,99783.78
2022-08-30T00:58:37.208Z,99797.91
2022-08-30T01:04:42.774Z,99789.16
2022-08-30T01:10:44.972Z,99789.34
2022-08-30T01:16:47.472Z,99804.31
2022-08-30T01:22:49.555Z,99813.03
2022-08-30T01:28:56.931Z,99808.91
2022-08-30T01:34:58.899Z,99797.31
2022-08-30T01:41:13.336Z,99808.28
2022-08-30T01:47:18.195Z,99810.38
2022-08-30T01:53:20.313Z,99811.84
2022-08-30T01:59:22.308Z,99816.13
2022-08-30T02:05:24.838Z,99807.47
2022-08-30T02:11:26.895Z,99805.81
2022-08-30T02:17:28.866Z,99802.09
2022-08-30T02:23:31.259Z,99806.03
2022-08-30T02:29:33.213Z,99814.31
2022-08-30T02:35:35.271Z,99803.75
2022-08-30T02:41:39.003Z,99812.16
2022-08-30T02:47:46.687Z,99810.75
2022-08-30T02:53:49.854Z,99822.19
2022-08-30T02:59:52.349Z,99803.53
2022-08-30T03:05:54.455Z,99803.13
2022-08-30T03:11:56.408Z,99795.03
2022-08-30T03:17:58.601Z,99789.66
2022-08-30T03:24:00.560Z,99794.16
2022-08-30T03:30:02.714Z,99794.53
2022-08-30T03:36:05.534Z,99783.78
2022-08-30T03:42:07.703Z,99775.47
2022-08-30T03:48:11.050Z,99783.22
2022-08-30T03:54:13.524Z,99786.69
2022-08-30T04:00:19.045Z,99779.00
2022-08-30T04:06:21.010Z,99780.88
2022-08-30T04:12:23.041Z,99790.38
2022-08-30T04:18:25.258Z,99800.34
2022-08-30T04:24:27.637Z,99803.97
2022-08-30T04:30:29.762Z,99811.81
2022-08-30T04:36:31.754Z,99813.66
2022-08-30T04:42:35.294Z,99808.94
2022-08-30T04:48:38.481Z,99808.53
2022-08-30T04:54:40.520Z,99806.03
2022-08-30T05:00:44.584Z,99807.69
2022-08-30T05:06:46.702Z,99813.28
2022-08-30T05:12:48.721Z,99818.91
2022-08-30T05:18:52.393Z,99831.31
2022-08-30T05:24:54.434Z,99829.63
2022-08-30T05:30:56.376Z,99837.53
2022-08-30T05:36:59.454Z,99836.91
2022-08-30T05:43:01.470Z,99846.00
2022-08-30T05:49:06.162Z,99842.63
2022-08-30T05:55:09.714Z,99851.16
2022-08-30T06:01:28.011Z,99853.00
2022-08-30T06:07:30.119Z,99847.88
2022-08-30T06:13:32.707Z,99852.50
2022-08-30T06:19:34.681Z,99868.38
2022-08-30T06:25:41.915Z,99858.06
2022-08-30T06:31:44.425Z,99865.25
2022-08-30T06:37:46.406Z,99864.03
2022-08-30T06:43:49.443Z,99879.59
2022-08-30T06:49:51.436Z,99874.72
2022-08-30T06:55:59.538Z,99871.84
2022-08-30T07:02:01.597Z,99870.25
2022-08-30T07:08:03.885Z,99878.31
2022-08-30T07:14:07.463Z,99883.44
2022-08-30T07:20:10.419Z,99886.81
2022-08-30T07:26:15.919Z,99879.03
2022-08-30T07:32:17.893Z,99887.25
2022-08-30T07:38:19.929Z,99886.28
2022-08-30T07:44:25.011Z,99899.22
2022-08-30T07:50:27.582Z,99897.97
2022-08-30T07:56:29.619Z,99896.47
2022-08-30T08:02:31.652Z,99904.50
2022-08-30T08:08:34.938Z,99913.97
2022-08-30T08:14:37.241Z,99908.63
2022-08-30T08:20:39.201Z,99918.03
2022-08-30T08:26:45.378Z,99909.00
2022-08-30T08:32:48.999Z,99907.78
2022-08-30T08:38:50.987Z,99910.66
2022-08-30T08:45:19.329Z,99911.31
2022-08-30T08:51:46.122Z,99921.84
2022-08-30T08:57:48.280Z,99917.06
2022-08-30T09:03:50.981Z,99914.41
2022-08-30T09:09:53.089Z,99917.53
2022-08-30T09:15:59.549Z,99915.03
2022-08-30T09:22:12.844Z,99908.88
2022-08-30T09:28:18.501Z,99896.13
2022-08-30T09:34:23.907Z,99893.81
2022-08-30T09:40:44.370Z,99894.81
2022-08-30T09:46:56.079Z,99883.50
2022-08-30T09:53:23.335Z,99880.84
2022-08-30T09:59:46.775Z,99894.00
2022-08-30T10:06:11.703Z,99883.28
2022-08-30T10:12:32.989Z,99879.25
2022-08-30T10:19:06.391Z,99875.00
2022-08-30T10:25:25.505Z,99869.44
2022-08-30T10:31:53.953Z,99875.72
2022-08-30T10:38:06.209Z,99869.97
2022-08-30T10:44:30.919Z,99870.19
2022-08-30T10:50:42.834Z,99860.13
2022-08-30T10:56:51.426Z,99865.09
2022-08-30T11:03:26.535Z,99862.09
2022-08-30T11:09:46.300Z,99852.97
2022-08-30T11:16:09.250Z,99856.28
2022-08-30T11:22:24.325Z,99849.28
2022-08-30T11:28:38.509Z,99847.09
2022-08-30T11:34:46.812Z,99849.22
2022-08-30T11:41:11.263Z,99847.09
2022-08-30T11:47:42.144Z,99828.44
2022-08-30T11:54:06.506Z,99836.72
2022-08-30T12:00:35.562Z,99835.19
2022-08-30T12:06:40.472Z,99844.00
2022-08-30T12:12:48.903Z,99842.59
2022-08-30T12:19:00.073Z,99838.16
2022-08-30T12:25:13.496Z,99827.38
2022-08-30T12:31:26.956Z,99824.34
2022-08-30T12:37:31.999Z,99821.97
2022-08-30T12:43:52.836Z,99814.25
2022-08-30T12:49:56.270Z,99807.78
2022-08-30T12:56:05.524Z,99800.50
2022-08-30T13:02:22.863Z,99797.72
2022-08-30T13:08:50.629Z,99807.28
2022-08-30T13:15:08.946Z,99796.25
2022-08-30T13:21:25.888Z,99788.88
2022-08-30T13:27:29.710Z,99783.06
2022-08-30T13:33:31.858Z,99787.31
2022-08-30T13:39:34.562Z,99790.03
2022-08-30T13:45:42.132Z,99777.78
2022-08-30T13:51:53.779Z,99778.56
2022-08-30T13:58:06.619Z,99775.34
2022-08-30T14:04:16.315Z,99762.88
2022-08-30T14:10:45.690Z,99751.00
2022-08-30T14:16:46.320Z,99745.16
2022-08-30T14:22:48.420Z,99750.41
2022-08-30T14:28:51.731Z,99760.34
2022-08-30T14:34:54.104Z,99740.56
2022-08-30T14:40:56.114Z,99736.44
2022-08-30T14:46:58.393Z,99736.53
2022-08-30T14:53:03.077Z,99740.50
2022-08-30T14:59:05.752Z,99757.59
2022-08-30T15:05:08.487Z,99739.94
2022-08-30T15:11:13.553Z,99755.84
2022-08-30T15:17:17.893Z,99757.41
2022-08-30T15:23:22.876Z,99743.78
2022-08-30T15:29:27.636Z,99737.53
2022-08-30T15:35:33.559Z,99730.84
2022-08-30T15:41:36.091Z,99731.34
2022-08-30T15:47:39.674Z,99736.31
2022-08-30T15:53:43.925Z,99726.66
2022-08-30T15:59:46.400Z,99725.22
2022-08-30T16:05:48.381Z,99733.34
2022-08-30T16:11:52.024Z,99712.50
2022-08-30T16:17:54.093Z,99707.31
2022-08-30T16:23:59.948Z,99699.47
2022-08-30T16:30:01.965Z,99695.09
2022-08-30T16:36:05.040Z,99702.53
2022-08-30T16:42:07.923Z,99693.72
2022-08-30T16:48:17.008Z,99683.78
2022-08-30T16:54:19.127Z,99685.03
2022-08-30T17:00:21.961Z,99687.19
2022-08-30T17:06:24.266Z,99681.59
2022-08-30T17:12:26.668Z,99687.63
2022-08-30T17:18:28.616Z,99685.06
2022-08-30T17:24:30.787Z,99688.53
2022-08-30T17:30:33.512Z,99686.44
2022-08-30T17:36:36.938Z,99681.94
2022-08-30T17:42:39.252Z,99701.34
2022-08-30T17:48:41.276Z,99706.97
2022-08-30T17:54:43.341Z,99711.56
2022-08-30T18:00:45.614Z,99698.25
2022-08-30T18:06:48.136Z,99687.19
2022-08-30T18:12:51.166Z,99705.47
2022-08-30T18:18:57.324Z,99701.03
2022-08-30T18:25:02.419Z,99699.78
2022-08-30T18:31:05.000Z,99721.28
2022-08-30T18:37:12.789Z,99719.19
2022-08-30T18:43:16.696Z,99734.69
2022-08-30T18:49:18.666Z,99721.13
2022-08-30T18:55:20.890Z,99729.53
2022-08-30T19:01:23.182Z,99730.44
2022-08-30T19:07:29.003Z,99743.06
2022-08-30T19:13:47.917Z,99742.34
2022-08-30T19:19:52.158Z,99752.09
2022-08-30T19:25:55.107Z,99749.97
2022-08-30T19:31:57.210Z,99756.25
2022-08-30T19:37:59.437Z,99772.38
2022-08-30T19:44:03.143Z,99782.75
2022-08-30T19:50:07.519Z,99775.81
2022-08-30T19:56:11.298Z,99765.84
2022-08-30T20:02:13.711Z,99772.06
2022-08-30T20:08:15.824Z,99781.53
2022-08-30T20:14:17.887Z,99773.53
2022-08-30T20:20:21.972Z,99786.16
2022-08-30T20:26:33.638Z,99784.72
2022-08-30T20:32:37.796Z,99782.19
2022-08-30T20:38:40.246Z,99787.25
2022-08-30T20:44:43.031Z,99788.81
2022-08-30T20:50:45.538Z,99783.97
2022-08-30T20:56:47.550Z,99795.69
2022-08-30T21:02:50.337Z,99785.75
2022-08-30T21:08:52.947Z,99793.66
2022-08-30T21:14:55.167Z,99784.66
2022-08-30T21:20:58.490Z,99792.00
2022-08-30T21:27:00.734Z,99792.75
2022-08-30T21:33:04.902Z,99804.97
2022-08-30T21:39:08.505Z,99809.47
2022-08-30T21:45:11.119Z,99812.81
2022-08-30T21:51:13.303Z,99807.50
2022-08-30T21:57:16.929Z,99810.78
2022-08-30T22:03:19.023Z,99814.38
2022-08-30T22:09:24.693Z,99802.00
2022-08-30T22:15:26.841Z,99809.44
2022-08-30T22:21:32.261Z,99820.44
2022-08-30T22:27:34.683Z,99825.75
2022-08-30T22:33:37.652Z,99833.44
2022-08-30T22:39:39.728Z,99834.13
2022-08-30T22:45:42.221Z,99838.59
2022-08-30T22:51:44.304Z,99833.50
2022-08-30T22:57:46.256Z,99845.28
2022-08-30T23:03:49.245Z,99846.44
2022-08-30T23:09:51.240Z,99849.81
2022-08-30T23:15:53.250Z,99856.31
2022-08-30T23:21:55.185Z,99854.19
2022-08-30T23:28:17.467Z,99866.91
2022-08-30T23:34:41.185Z,99856.88
2022-08-30T23:41:01.905Z,99856.19
2022-08-30T23:47:22.429Z,99851.53
2022-08-30T23:53:43.695Z,99866.97
